createdAt,value
2023-05-04T00:01:38.705Z,5.70
2023-05-04T00:06:40.894Z,5.47
2023-05-04T00:11:43.011Z,5.57
2023-05-04T00:16:46.983Z,5.40
2023-05-04T00:21:49.256Z,4.83
2023-05-04T00:26:51.552Z,4.97
2023-05-04T00:31:55.382Z,6.70
2023-05-04T00:36:57.704Z,5.97
2023-05-04T00:41:59.903Z,5.30
2023-05-04T00:47:04.130Z,6.20
2023-05-04T00:52:06.875Z,6.63
2023-05-04T00:57:09.230Z,6.90
2023-05-04T01:02:12.455Z,7.83
2023-05-04T01:07:26.618Z,7.27
2023-05-04T01:12:35.570Z,6.40
2023-05-04T01:17:39.116Z,6.60
2023-05-04T01:22:42.837Z,6.97
2023-05-04T01:27:50.230Z,8.30
2023-05-04T01:32:54.081Z,9.27
2023-05-04T01:37:57.855Z,8.50
2023-05-04T01:42:59.896Z,7.20
2023-05-04T01:48:01.939Z,7.40
2023-05-04T01:53:05.723Z,6.10
2023-05-04T01:58:07.824Z,5.50
2023-05-04T02:03:10.810Z,6.87
2023-05-04T02:08:14.217Z,6.63
2023-05-04T02:13:16.814Z,6.50
2023-05-04T02:18:18.816Z,6.07
2023-05-04T02:23:22.260Z,6.53
2023-05-04T02:28:24.646Z,6.67
2023-05-04T02:33:26.723Z,5.60
2023-05-04T02:38:29.837Z,5.27
2023-05-04T02:43:32.020Z,4.80
2023-05-04T02:48:34.525Z,4.47
2023-05-04T02:53:38.060Z,5.40
2023-05-04T02:58:40.244Z,5.40
2023-05-04T03:03:42.590Z,6.10
2023-05-04T03:08:46.134Z,6.17
2023-05-04T03:13:48.044Z,5.30
2023-05-04T03:24:11.646Z,5.63
2023-05-04T03:29:13.971Z,6.00
2023-05-04T03:34:15.991Z,6.40
2023-05-04T03:39:19.794Z,6.20
2023-05-04T03:44:21.838Z,6.17
2023-05-04T03:49:23.838Z,6.57
2023-05-04T03:54:27.575Z,7.30
2023-05-04T03:59:29.657Z,6.53
2023-05-04T04:04:31.608Z,7.23
2023-05-04T04:09:35.140Z,4.97
2023-05-04T04:14:36.834Z,4.60
2023-05-04T04:19:38.923Z,5.67
2023-05-04T04:24:42.786Z,6.20
2023-05-04T04:29:44.691Z,5.97
2023-05-04T04:34:47.080Z,6.77
2023-05-04T04:39:50.910Z,7.73
2023-05-04T04:44:53.689Z,7.27
2023-05-04T04:49:55.938Z,7.70
2023-05-04T04:55:00.071Z,8.00
2023-05-04T05:00:02.391Z,5.73
2023-05-04T05:05:05.265Z,5.77
2023-05-04T05:10:10.287Z,7.57
2023-05-04T05:15:12.860Z,9.27
2023-05-04T05:20:15.520Z,9.03
2023-05-04T05:25:19.166Z,10.10
2023-05-04T05:30:21.348Z,8.73
2023-05-04T05:35:23.845Z,8.20
2023-05-04T05:40:27.325Z,7.60
2023-05-04T05:45:29.716Z,6.60
2023-05-04T05:50:31.983Z,6.53
2023-05-04T05:55:35.594Z,5.93
2023-05-04T06:00:37.706Z,7.10
2023-05-04T06:05:39.511Z,6.47
2023-05-04T06:10:43.409Z,6.90
2023-05-04T06:15:52.835Z,7.13
2023-05-04T06:21:00.346Z,6.87
2023-05-04T06:26:05.991Z,7.53
2023-05-04T06:31:08.684Z,6.03
2023-05-04T06:36:10.810Z,5.90
2023-05-04T06:41:15.017Z,5.93
2023-05-04T06:46:17.431Z,6.40
2023-05-04T06:51:19.546Z,6.43
2023-05-04T06:56:23.800Z,7.10
2023-05-04T07:01:25.831Z,5.83
2023-05-04T07:06:28.757Z,5.50
2023-05-04T07:11:32.312Z,5.20
2023-05-04T07:16:34.211Z,4.60
2023-05-04T07:21:36.689Z,4.77
2023-05-04T07:26:40.136Z,5.00
2023-05-04T07:31:42.395Z,5.23
2023-05-04T07:36:44.751Z,5.23
2023-05-04T07:41:49.614Z,5.23
2023-05-04T07:46:51.748Z,4.90
2023-05-04T07:51:53.966Z,4.30
2023-05-04T07:56:57.226Z,4.47
2023-05-04T08:01:59.920Z,4.43
2023-05-04T08:07:02.248Z,5.60
2023-05-04T08:12:06.035Z,5.38
2023-05-04T08:17:08.428Z,4.45
2023-05-04T08:22:10.812Z,3.63
2023-05-04T08:27:15.946Z,3.03
2023-05-04T08:32:18.456Z,3.67
2023-05-04T08:37:21.460Z,3.88
2023-05-04T08:42:32.504Z,3.75
2023-05-04T08:47:34.740Z,3.35
2023-05-04T08:52:38.157Z,3.25
2023-05-04T08:57:44.613Z,3.55
2023-05-04T09:02:48.323Z,3.83
2023-05-04T09:07:52.671Z,3.47
2023-05-04T09:12:56.975Z,3.30
2023-05-04T09:18:00.282Z,3.60
2023-05-04T09:23:03.990Z,3.50
2023-05-04T09:28:07.166Z,3.50
2023-05-04T09:33:10.801Z,3.40
2023-05-04T09:38:12.585Z,3.58
2023-05-04T09:43:16.003Z,3.10
2023-05-04T09:48:20.609Z,3.72
2023-05-04T09:53:25.194Z,3.30
2023-05-04T09:58:29.203Z,3.40
2023-05-04T10:03:31.856Z,3.65
2023-05-04T10:08:34.652Z,3.45
2023-05-04T10:13:38.086Z,3.30
2023-05-04T10:18:57.706Z,3.83
2023-05-04T10:24:29.526Z,3.60
2023-05-04T10:29:34.469Z,3.10
2023-05-04T10:34:37.149Z,3.92
2023-05-04T10:39:40.159Z,4.22
2023-05-04T10:44:53.420Z,3.92
2023-05-04T10:50:04.198Z,4.65
2023-05-04T10:55:09.260Z,4.38
2023-05-04T11:00:14.575Z,3.70
2023-05-04T11:05:20.465Z,4.43
2023-05-04T11:10:24.584Z,3.85
2023-05-04T11:15:28.365Z,3.13
2023-05-04T11:20:30.456Z,3.22
2023-05-04T11:25:33.575Z,3.42
2023-05-04T11:30:37.919Z,3.55
2023-05-04T11:35:40.535Z,3.33
2023-05-04T11:40:49.934Z,3.42
2023-05-04T11:45:56.081Z,3.50
2023-05-04T11:50:58.281Z,3.00
2023-05-04T11:56:03.829Z,2.47
2023-05-04T12:01:07.695Z,2.83
2023-05-04T12:06:10.768Z,2.42
2023-05-04T12:11:16.434Z,2.83
2023-05-04T12:16:22.006Z,2.50
2023-05-04T12:21:24.375Z,2.53
2023-05-04T12:26:27.156Z,2.85
2023-05-04T12:31:30.877Z,2.72
2023-05-04T12:36:33.343Z,2.38
2023-05-04T12:41:35.794Z,2.60
2023-05-04T12:46:39.470Z,2.53
2023-05-04T12:51:41.569Z,2.60
2023-05-04T12:56:43.512Z,1.95
2023-05-04T13:01:47.267Z,1.75
2023-05-04T13:06:49.230Z,1.70
2023-05-04T13:11:51.334Z,1.83
2023-05-04T13:16:55.580Z,1.83
2023-05-04T13:21:57.830Z,1.70
2023-05-04T13:27:02.445Z,1.25
2023-05-04T13:32:06.885Z,1.70
2023-05-04T13:37:08.816Z,1.77
2023-05-04T13:42:10.669Z,1.45
2023-05-04T13:47:15.219Z,1.60
2023-05-04T13:52:17.383Z,1.50
2023-05-04T13:57:19.468Z,1.30
2023-05-04T14:02:25.126Z,1.45
2023-05-04T14:07:30.731Z,1.60
2023-05-04T14:12:33.075Z,1.70
2023-05-04T14:17:36.786Z,1.52
2023-05-04T14:22:41.373Z,5.47
2023-05-04T14:27:44.226Z,14.65
2023-05-04T14:32:47.508Z,2.28
2023-05-04T14:37:49.757Z,2.00
2023-05-04T14:42:52.139Z,1.75
2023-05-04T14:47:55.925Z,2.13
2023-05-04T14:52:58.351Z,2.40
2023-05-04T14:58:00.648Z,2.30
2023-05-04T15:03:04.284Z,5.13
2023-05-04T15:08:07.027Z,2.70
2023-05-04T15:13:09.201Z,2.22
2023-05-04T15:18:12.860Z,2.60
2023-05-04T15:23:14.912Z,2.03
2023-05-04T15:28:16.939Z,2.08
2023-05-04T15:33:20.493Z,2.20
2023-05-04T15:38:22.900Z,2.10
2023-05-04T15:43:24.927Z,2.00
2023-05-04T15:48:28.888Z,2.38
2023-05-04T15:53:31.034Z,1.98
2023-05-04T15:58:33.191Z,2.88
2023-05-04T16:03:36.615Z,2.50
2023-05-04T16:08:38.790Z,2.60
2023-05-04T16:13:41.126Z,2.60
2023-05-04T16:18:45.039Z,2.90
2023-05-04T16:23:47.101Z,2.92
2023-05-04T16:28:49.392Z,2.55
2023-05-04T16:33:53.731Z,2.60
2023-05-04T16:38:55.805Z,2.70
2023-05-04T16:43:58.319Z,2.65
2023-05-04T16:49:02.231Z,2.92
2023-05-04T16:54:04.374Z,3.03
2023-05-04T16:59:06.926Z,2.60
2023-05-04T17:04:11.355Z,2.70
2023-05-04T17:09:13.377Z,2.90
2023-05-04T17:14:15.746Z,2.90
2023-05-04T17:19:19.749Z,3.10
2023-05-04T17:24:22.031Z,2.70
2023-05-04T17:29:24.516Z,3.00
2023-05-04T17:34:28.402Z,2.67
2023-05-04T17:39:31.878Z,2.55
2023-05-04T17:44:33.868Z,3.58
2023-05-04T17:49:37.680Z,3.17
2023-05-04T17:54:39.937Z,3.45
2023-05-04T17:59:42.076Z,3.80
2023-05-04T18:04:45.908Z,3.63
2023-05-04T18:09:47.882Z,3.33
2023-05-04T18:14:50.220Z,3.85
2023-05-04T18:19:53.776Z,3.47
2023-05-04T18:24:55.712Z,4.00
2023-05-04T18:29:58.053Z,3.53
2023-05-04T18:35:01.805Z,3.97
2023-05-04T18:40:05.247Z,4.57
2023-05-04T18:45:10.479Z,4.55
2023-05-04T18:50:52.619Z,4.45
2023-05-04T19:02:17.012Z,3.97
2023-05-04T19:07:21.555Z,6.07
2023-05-04T19:12:24.073Z,3.73
2023-05-04T19:17:26.337Z,3.53
2023-05-04T19:22:31.285Z,5.27
2023-05-04T19:27:33.540Z,4.43
2023-05-04T19:32:37.483Z,5.00
2023-05-04T19:37:41.344Z,4.63
2023-05-04T19:42:46.345Z,5.27
2023-05-04T19:47:48.648Z,4.93
2023-05-04T19:52:53.130Z,6.60
2023-05-04T19:57:55.518Z,6.50
2023-05-04T20:02:57.970Z,4.83
2023-05-04T20:08:04.206Z,4.53
2023-05-04T20:13:07.039Z,4.87
2023-05-04T20:18:09.526Z,5.03
2023-05-04T20:23:13.549Z,4.83
2023-05-04T20:28:16.715Z,5.63
2023-05-04T20:33:19.314Z,5.87
2023-05-04T20:38:22.877Z,5.33
2023-05-04T20:43:25.108Z,4.50
2023-05-04T20:48:27.673Z,5.20
2023-05-04T20:53:36.484Z,4.60
2023-05-04T20:58:38.383Z,3.93
2023-05-04T21:03:40.972Z,3.30
2023-05-04T21:08:44.797Z,3.77
2023-05-04T21:13:46.990Z,3.97
2023-05-04T21:18:49.487Z,4.47
2023-05-04T21:23:53.091Z,4.50
2023-05-04T21:28:55.496Z,4.30
2023-05-04T21:33:57.913Z,4.63
2023-05-04T21:39:01.439Z,4.67
2023-05-04T21:44:03.386Z,4.77
2023-05-04T21:49:05.202Z,4.67
2023-05-04T21:54:09.223Z,4.13
2023-05-04T21:59:11.225Z,4.80
2023-05-04T22:04:13.486Z,4.50
2023-05-04T22:09:19.045Z,4.13
2023-05-04T22:14:21.572Z,4.97
2023-05-04T22:19:25.123Z,4.37
2023-05-04T22:24:29.090Z,3.53
2023-05-04T22:29:31.253Z,4.07
2023-05-04T22:34:33.253Z,3.60
2023-05-04T22:39:36.579Z,3.70
2023-05-04T22:44:38.690Z,3.60
2023-05-04T22:49:41.514Z,3.40
2023-05-04T22:54:45.847Z,3.67
2023-05-04T22:59:48.431Z,3.40
2023-05-04T23:04:50.423Z,3.10
2023-05-04T23:09:53.625Z,3.40
2023-05-04T23:14:55.992Z,3.23
2023-05-04T23:20:07.576Z,3.73
2023-05-04T23:25:11.645Z,3.50
2023-05-04T23:30:14.315Z,4.20
2023-05-04T23:35:16.660Z,3.70
2023-05-04T23:40:20.319Z,3.60
2023-05-04T23:45:22.707Z,3.40
2023-05-04T23:50:25.020Z,3.87
2023-05-04T23:55:28.441Z,3.90
